sensor_id;sensor_type;location;lat;lon;timestamp;temperature;humidity
2024;DHT22;1016;48.770;9.154;2023-01-26T00:00:43;4.40;99.90
2024;DHT22;1016;48.770;9.154;2023-01-26T00:03:09;4.50;99.90
2024;DHT22;1016;48.770;9.154;2023-01-26T00:05:38;4.50;99.90
2024;DHT22;1016;48.770;9.154;2023-01-26T00:08:04;4.50;99.90
2024;DHT22;1016;48.770;9.154;2023-01-26T00:10:29;4.50;99.90
2024;DHT22;1016;48.770;9.154;2023-01-26T00:12:55;4.60;99.90
2024;DHT22;1016;48.770;9.154;2023-01-26T00:15:20;4.70;99.90
2024;DHT22;1016;48.770;9.154;2023-01-26T00:17:46;4.70;99.90
2024;DHT22;1016;48.770;9.154;2023-01-26T00:20:12;4.50;99.90
2024;DHT22;1016;48.770;9.154;2023-01-26T00:22:37;4.50;99.90
2024;DHT22;1016;48.770;9.154;2023-01-26T00:25:03;4.50;99.90
2024;DHT22;1016;48.770;9.154;2023-01-26T00:27:30;4.40;99.90
2024;DHT22;1016;48.770;9.154;2023-01-26T00:29:56;4.40;99.90
2024;DHT22;1016;48.770;9.154;2023-01-26T00:32:21;4.50;99.90
2024;DHT22;1016;48.770;9.154;2023-01-26T00:34:47;4.60;99.90
2024;DHT22;1016;48.770;9.154;2023-01-26T00:37:13;4.60;99.90
2024;DHT22;1016;48.770;9.154;2023-01-26T00:39:38;4.60;99.90
2024;DHT22;1016;48.770;9.154;2023-01-26T00:42:04;4.70;99.90
2024;DHT22;1016;48.770;9.154;2023-01-26T00:44:35;4.70;99.90
2024;DHT22;1016;48.770;9.154;2023-01-26T00:47:02;4.70;99.90
2024;DHT22;1016;48.770;9.154;2023-01-26T00:49:27;4.60;99.90
2024;DHT22;1016;48.770;9.154;2023-01-26T00:51:52;4.70;99.90
2024;DHT22;1016;48.770;9.154;2023-01-26T00:54:18;4.70;99.90
2024;DHT22;1016;48.770;9.154;2023-01-26T00:56:43;4.80;99.90
2024;DHT22;1016;48.770;9.154;2023-01-26T00:59:09;4.80;99.90
2024;DHT22;1016;48.770;9.154;2023-01-26T01:01:35;4.80;99.90
2024;DHT22;1016;48.770;9.154;2023-01-26T01:04:00;4.80;99.90
2024;DHT22;1016;48.770;9.154;2023-01-26T01:06:26;4.80;99.90
2024;DHT22;1016;48.770;9.154;2023-01-26T01:08:51;4.80;99.90
2024;DHT22;1016;48.770;9.154;2023-01-26T01:11:16;4.80;99.90
2024;DHT22;1016;48.770;9.154;2023-01-26T01:13:42;4.80;99.90
2024;DHT22;1016;48.770;9.154;2023-01-26T01:16:10;4.80;99.90
2024;DHT22;1016;48.770;9.154;2023-01-26T01:18:36;4.70;99.90
2024;DHT22;1016;48.770;9.154;2023-01-26T01:21:09;4.60;99.90
2024;DHT22;1016;48.770;9.154;2023-01-26T01:23:36;4.70;99.90
2024;DHT22;1016;48.770;9.154;2023-01-26T01:26:02;4.70;99.90
2024;DHT22;1016;48.770;9.154;2023-01-26T01:28:28;4.70;99.90
2024;DHT22;1016;48.770;9.154;2023-01-26T01:30:53;4.70;99.90
2024;DHT22;1016;48.770;9.154;2023-01-26T01:33:19;4.70;99.90
2024;DHT22;1016;48.770;9.154;2023-01-26T01:35:55;4.70;99.90
2024;DHT22;1016;48.770;9.154;2023-01-26T01:38:21;4.70;99.90
2024;DHT22;1016;48.770;9.154;2023-01-26T01:40:46;4.70;99.90
2024;DHT22;1016;48.770;9.154;2023-01-26T01:43:12;4.80;99.90
2024;DHT22;1016;48.770;9.154;2023-01-26T01:45:39;4.80;99.90
2024;DHT22;1016;48.770;9.154;2023-01-26T01:50:43;4.80;99.90
2024;DHT22;1016;48.770;9.154;2023-01-26T01:53:14;4.80;99.90
2024;DHT22;1016;48.770;9.154;2023-01-26T01:55:42;4.80;99.90
2024;DHT22;1016;48.770;9.154;2023-01-26T01:58:08;4.80;99.90
2024;DHT22;1016;48.770;9.154;2023-01-26T02:00:33;4.70;99.90
2024;DHT22;1016;48.770;9.154;2023-01-26T02:06:00;4.80;99.90
2024;DHT22;1016;48.770;9.154;2023-01-26T02:08:37;4.80;99.90
2024;DHT22;1016;48.770;9.154;2023-01-26T02:11:12;4.80;99.90
2024;DHT22;1016;48.770;9.154;2023-01-26T02:13:40;4.70;99.90
2024;DHT22;1016;48.770;9.154;2023-01-26T02:16:06;4.70;99.90
2024;DHT22;1016;48.770;9.154;2023-01-26T02:18:32;4.80;99.90
2024;DHT22;1016;48.770;9.154;2023-01-26T02:21:09;4.70;99.90
2024;DHT22;1016;48.770;9.154;2023-01-26T02:26:26;4.70;99.90
2024;DHT22;1016;48.770;9.154;2023-01-26T02:28:52;4.70;99.90
2024;DHT22;1016;48.770;9.154;2023-01-26T02:31:19;4.70;99.90
2024;DHT22;1016;48.770;9.154;2023-01-26T02:33:46;4.90;99.90
2024;DHT22;1016;48.770;9.154;2023-01-26T02:36:27;4.80;99.90
2024;DHT22;1016;48.770;9.154;2023-01-26T02:41:38;4.80;99.90
2024;DHT22;1016;48.770;9.154;2023-01-26T02:44:23;4.90;99.90
2024;DHT22;1016;48.770;9.154;2023-01-26T02:46:49;4.90;99.90
2024;DHT22;1016;48.770;9.154;2023-01-26T02:49:15;4.90;99.90
2024;DHT22;1016;48.770;9.154;2023-01-26T02:51:59;4.90;99.90
2024;DHT22;1016;48.770;9.154;2023-01-26T02:54:25;4.90;99.90
2024;DHT22;1016;48.770;9.154;2023-01-26T02:57:09;4.90;99.90
2024;DHT22;1016;48.770;9.154;2023-01-26T02:59:35;4.90;99.90
2024;DHT22;1016;48.770;9.154;2023-01-26T03:02:00;5.00;99.90
2024;DHT22;1016;48.770;9.154;2023-01-26T03:04:26;4.90;99.90
2024;DHT22;1016;48.770;9.154;2023-01-26T03:06:52;4.90;99.90
2024;DHT22;1016;48.770;9.154;2023-01-26T03:09:17;4.80;99.90
2024;DHT22;1016;48.770;9.154;2023-01-26T03:11:43;4.70;99.90
2024;DHT22;1016;48.770;9.154;2023-01-26T03:14:09;4.60;99.90
2024;DHT22;1016;48.770;9.154;2023-01-26T03:16:35;4.60;99.90
2024;DHT22;1016;48.770;9.154;2023-01-26T03:19:00;4.50;99.90
2024;DHT22;1016;48.770;9.154;2023-01-26T03:21:29;4.50;99.90
2024;DHT22;1016;48.770;9.154;2023-01-26T03:24:16;4.70;99.90
2024;DHT22;1016;48.770;9.154;2023-01-26T03:27:00;4.50;99.90
2024;DHT22;1016;48.770;9.154;2023-01-26T03:29:44;4.50;99.90
2024;DHT22;1016;48.770;9.154;2023-01-26T03:32:10;4.40;99.90
2024;DHT22;1016;48.770;9.154;2023-01-26T03:34:36;4.30;99.90
2024;DHT22;1016;48.770;9.154;2023-01-26T03:37:02;4.40;99.90
2024;DHT22;1016;48.770;9.154;2023-01-26T03:39:27;4.40;99.90
2024;DHT22;1016;48.770;9.154;2023-01-26T03:42:12;4.40;99.90
2024;DHT22;1016;48.770;9.154;2023-01-26T03:44:56;4.40;99.90
2024;DHT22;1016;48.770;9.154;2023-01-26T03:47:40;4.40;99.90
2024;DHT22;1016;48.770;9.154;2023-01-26T03:50:24;4.40;99.90
2024;DHT22;1016;48.770;9.154;2023-01-26T03:53:16;4.40;99.90
2024;DHT22;1016;48.770;9.154;2023-01-26T03:56:01;4.50;99.90
2024;DHT22;1016;48.770;9.154;2023-01-26T03:58:47;4.50;99.90
2024;DHT22;1016;48.770;9.154;2023-01-26T04:01:13;4.50;99.90
2024;DHT22;1016;48.770;9.154;2023-01-26T04:03:45;4.50;99.90
2024;DHT22;1016;48.770;9.154;2023-01-26T04:06:29;4.50;99.90
2024;DHT22;1016;48.770;9.154;2023-01-26T04:09:13;4.40;99.90
2024;DHT22;1016;48.770;9.154;2023-01-26T04:11:39;4.30;99.90
2024;DHT22;1016;48.770;9.154;2023-01-26T04:14:05;4.50;99.90
2024;DHT22;1016;48.770;9.154;2023-01-26T04:16:49;4.40;99.90
2024;DHT22;1016;48.770;9.154;2023-01-26T04:19:33;4.40;99.90
2024;DHT22;1016;48.770;9.154;2023-01-26T04:22:17;4.40;99.90
2024;DHT22;1016;48.770;9.154;2023-01-26T04:24:42;4.40;99.90
2024;DHT22;1016;48.770;9.154;2023-01-26T04:27:08;4.50;99.90
2024;DHT22;1016;48.770;9.154;2023-01-26T04:29:33;4.50;99.90
2024;DHT22;1016;48.770;9.154;2023-01-26T04:31:59;4.50;99.90
2024;DHT22;1016;48.770;9.154;2023-01-26T04:34:25;4.40;99.90
2024;DHT22;1016;48.770;9.154;2023-01-26T04:36:50;4.40;99.90
2024;DHT22;1016;48.770;9.154;2023-01-26T04:39:16;4.30;99.90
2024;DHT22;1016;48.770;9.154;2023-01-26T04:41:41;4.40;99.90
2024;DHT22;1016;48.770;9.154;2023-01-26T04:44:07;4.40;99.90
2024;DHT22;1016;48.770;9.154;2023-01-26T04:46:32;4.40;99.90
2024;DHT22;1016;48.770;9.154;2023-01-26T04:48:58;4.40;99.90
2024;DHT22;1016;48.770;9.154;2023-01-26T04:51:23;4.30;99.90
2024;DHT22;1016;48.770;9.154;2023-01-26T04:53:49;4.30;99.90
2024;DHT22;1016;48.770;9.154;2023-01-26T04:56:25;4.40;99.90
2024;DHT22;1016;48.770;9.154;2023-01-26T04:58:52;4.40;99.90
2024;DHT22;1016;48.770;9.154;2023-01-26T05:01:18;4.30;99.90
2024;DHT22;1016;48.770;9.154;2023-01-26T05:03:44;4.30;99.90
2024;DHT22;1016;48.770;9.154;2023-01-26T05:06:10;4.30;99.90
2024;DHT22;1016;48.770;9.154;2023-01-26T05:08:36;4.40;99.90
2024;DHT22;1016;48.770;9.154;2023-01-26T05:11:02;4.30;99.90
2024;DHT22;1016;48.770;9.154;2023-01-26T05:13:27;4.30;99.90
2024;DHT22;1016;48.770;9.154;2023-01-26T05:15:53;4.20;99.90
2024;DHT22;1016;48.770;9.154;2023-01-26T05:18:18;4.20;99.90
2024;DHT22;1016;48.770;9.154;2023-01-26T05:20:44;4.20;99.90
2024;DHT22;1016;48.770;9.154;2023-01-26T05:23:09;4.30;99.90
2024;DHT22;1016;48.770;9.154;2023-01-26T05:25:35;4.20;99.90
2024;DHT22;1016;48.770;9.154;2023-01-26T05:28:00;4.20;99.90
2024;DHT22;1016;48.770;9.154;2023-01-26T05:30:26;4.20;99.90
2024;DHT22;1016;48.770;9.154;2023-01-26T05:32:51;4.20;99.90
2024;DHT22;1016;48.770;9.154;2023-01-26T05:35:17;4.20;99.90
2024;DHT22;1016;48.770;9.154;2023-01-26T05:37:42;4.30;99.90
2024;DHT22;1016;48.770;9.154;2023-01-26T05:40:10;4.40;99.90
2024;DHT22;1016;48.770;9.154;2023-01-26T05:42:36;4.30;99.90
2024;DHT22;1016;48.770;9.154;2023-01-26T05:45:03;4.30;99.90
2024;DHT22;1016;48.770;9.154;2023-01-26T05:47:29;4.30;99.90
2024;DHT22;1016;48.770;9.154;2023-01-26T05:49:55;4.10;99.90
2024;DHT22;1016;48.770;9.154;2023-01-26T05:52:21;4.10;99.90
2024;DHT22;1016;48.770;9.154;2023-01-26T05:54:46;4.20;99.90
2024;DHT22;1016;48.770;9.154;2023-01-26T05:57:12;4.40;99.90
2024;DHT22;1016;48.770;9.154;2023-01-26T05:59:38;4.10;99.90
2024;DHT22;1016;48.770;9.154;2023-01-26T06:02:04;4.00;99.90
2024;DHT22;1016;48.770;9.154;2023-01-26T06:04:30;4.10;99.90
2024;DHT22;1016;48.770;9.154;2023-01-26T06:06:57;4.10;99.90
2024;DHT22;1016;48.770;9.154;2023-01-26T06:09:22;4.10;99.90
2024;DHT22;1016;48.770;9.154;2023-01-26T06:11:49;4.10;99.90
2024;DHT22;1016;48.770;9.154;2023-01-26T06:14:14;4.20;99.90
2024;DHT22;1016;48.770;9.154;2023-01-26T06:16:40;4.20;99.90
2024;DHT22;1016;48.770;9.154;2023-01-26T06:19:07;4.20;99.90
2024;DHT22;1016;48.770;9.154;2023-01-26T06:21:33;4.10;99.90
2024;DHT22;1016;48.770;9.154;2023-01-26T06:23:58;4.30;99.90
2024;DHT22;1016;48.770;9.154;2023-01-26T06:26:24;4.20;99.90
2024;DHT22;1016;48.770;9.154;2023-01-26T06:28:50;4.40;99.90
2024;DHT22;1016;48.770;9.154;2023-01-26T06:31:17;4.40;99.90
2024;DHT22;1016;48.770;9.154;2023-01-26T06:33:42;4.20;99.90
2024;DHT22;1016;48.770;9.154;2023-01-26T06:36:10;4.30;99.90
2024;DHT22;1016;48.770;9.154;2023-01-26T06:38:38;4.20;99.90
2024;DHT22;1016;48.770;9.154;2023-01-26T06:41:06;4.00;99.90
2024;DHT22;1016;48.770;9.154;2023-01-26T06:43:33;3.90;99.90
2024;DHT22;1016;48.770;9.154;2023-01-26T06:45:59;3.80;99.90
2024;DHT22;1016;48.770;9.154;2023-01-26T06:48:25;3.80;99.90
2024;DHT22;1016;48.770;9.154;2023-01-26T06:50:51;3.90;99.90
2024;DHT22;1016;48.770;9.154;2023-01-26T06:53:33;4.00;99.90
2024;DHT22;1016;48.770;9.154;2023-01-26T06:56:01;4.10;99.90
2024;DHT22;1016;48.770;9.154;2023-01-26T06:58:27;4.00;99.90
2024;DHT22;1016;48.770;9.154;2023-01-26T07:00:53;4.00;99.90
2024;DHT22;1016;48.770;9.154;2023-01-26T07:03:20;4.00;99.90
2024;DHT22;1016;48.770;9.154;2023-01-26T07:05:45;4.10;99.90
2024;DHT22;1016;48.770;9.154;2023-01-26T07:08:11;4.10;99.90
2024;DHT22;1016;48.770;9.154;2023-01-26T07:10:37;4.20;99.90
2024;DHT22;1016;48.770;9.154;2023-01-26T07:13:03;4.10;99.90
2024;DHT22;1016;48.770;9.154;2023-01-26T07:15:29;4.00;99.90
2024;DHT22;1016;48.770;9.154;2023-01-26T07:17:56;3.90;99.90
2024;DHT22;1016;48.770;9.154;2023-01-26T07:20:22;4.00;99.90
2024;DHT22;1016;48.770;9.154;2023-01-26T07:22:47;4.00;99.90
2024;DHT22;1016;48.770;9.154;2023-01-26T07:25:14;4.00;99.90
2024;DHT22;1016;48.770;9.154;2023-01-26T07:27:40;4.00;99.90
2024;DHT22;1016;48.770;9.154;2023-01-26T07:30:06;4.00;99.90
2024;DHT22;1016;48.770;9.154;2023-01-26T07:32:32;4.10;99.90
2024;DHT22;1016;48.770;9.154;2023-01-26T07:34:57;4.10;99.90
2024;DHT22;1016;48.770;9.154;2023-01-26T07:37:27;4.20;99.90
2024;DHT22;1016;48.770;9.154;2023-01-26T07:39:52;4.20;99.90
2024;DHT22;1016;48.770;9.154;2023-01-26T07:42:18;4.20;99.90
2024;DHT22;1016;48.770;9.154;2023-01-26T07:44:43;4.30;99.90
2024;DHT22;1016;48.770;9.154;2023-01-26T07:47:09;4.20;99.90
2024;DHT22;1016;48.770;9.154;2023-01-26T07:49:34;4.20;99.90
2024;DHT22;1016;48.770;9.154;2023-01-26T07:52:00;4.20;99.90
2024;DHT22;1016;48.770;9.154;2023-01-26T07:54:25;4.10;99.90
2024;DHT22;1016;48.770;9.154;2023-01-26T07:56:52;4.00;99.90
2024;DHT22;1016;48.770;9.154;2023-01-26T07:59:19;4.00;99.90
2024;DHT22;1016;48.770;9.154;2023-01-26T08:01:44;4.10;99.90
2024;DHT22;1016;48.770;9.154;2023-01-26T08:04:10;4.10;99.90
2024;DHT22;1016;48.770;9.154;2023-01-26T08:06:39;4.00;99.90
2024;DHT22;1016;48.770;9.154;2023-01-26T08:09:05;3.80;99.90
2024;DHT22;1016;48.770;9.154;2023-01-26T08:11:31;3.70;99.90
2024;DHT22;1016;48.770;9.154;2023-01-26T08:13:56;3.70;99.90
2024;DHT22;1016;48.770;9.154;2023-01-26T08:16:22;3.60;99.90
2024;DHT22;1016;48.770;9.154;2023-01-26T08:18:47;3.70;99.90
2024;DHT22;1016;48.770;9.154;2023-01-26T08:21:15;3.80;99.90
2024;DHT22;1016;48.770;9.154;2023-01-26T08:23:40;3.80;99.90
2024;DHT22;1016;48.770;9.154;2023-01-26T08:26:09;3.80;99.90
2024;DHT22;1016;48.770;9.154;2023-01-26T08:28:35;3.70;99.90
2024;DHT22;1016;48.770;9.154;2023-01-26T08:31:10;3.70;99.90
2024;DHT22;1016;48.770;9.154;2023-01-26T08:33:36;3.80;99.90
2024;DHT22;1016;48.770;9.154;2023-01-26T08:36:04;3.80;99.90
2024;DHT22;1016;48.770;9.154;2023-01-26T08:38:31;3.80;99.90
2024;DHT22;1016;48.770;9.154;2023-01-26T08:40:57;3.80;99.90
2024;DHT22;1016;48.770;9.154;2023-01-26T08:43:23;3.80;99.90
2024;DHT22;1016;48.770;9.154;2023-01-26T08:45:49;3.80;99.90
2024;DHT22;1016;48.770;9.154;2023-01-26T08:48:14;3.80;99.90
2024;DHT22;1016;48.770;9.154;2023-01-26T08:50:40;4.00;99.90
2024;DHT22;1016;48.770;9.154;2023-01-26T08:53:05;3.80;99.90
2024;DHT22;1016;48.770;9.154;2023-01-26T08:55:31;3.70;99.90
2024;DHT22;1016;48.770;9.154;2023-01-26T08:57:57;3.60;99.90
2024;DHT22;1016;48.770;9.154;2023-01-26T09:00:24;3.60;99.90
2024;DHT22;1016;48.770;9.154;2023-01-26T09:02:50;3.70;99.90
2024;DHT22;1016;48.770;9.154;2023-01-26T09:05:22;3.80;99.90
2024;DHT22;1016;48.770;9.154;2023-01-26T09:07:47;3.90;99.90
2024;DHT22;1016;48.770;9.154;2023-01-26T09:10:13;4.00;99.90
2024;DHT22;1016;48.770;9.154;2023-01-26T09:12:39;4.10;99.90
2024;DHT22;1016;48.770;9.154;2023-01-26T09:15:05;4.10;99.90
2024;DHT22;1016;48.770;9.154;2023-01-26T09:17:31;4.00;99.90
2024;DHT22;1016;48.770;9.154;2023-01-26T09:19:56;4.20;99.90
2024;DHT22;1016;48.770;9.154;2023-01-26T09:22:22;4.20;99.90
2024;DHT22;1016;48.770;9.154;2023-01-26T09:24:47;4.00;99.90
2024;DHT22;1016;48.770;9.154;2023-01-26T09:27:13;4.00;99.90
2024;DHT22;1016;48.770;9.154;2023-01-26T09:29:38;4.00;99.90
2024;DHT22;1016;48.770;9.154;2023-01-26T09:32:04;4.00;99.90
2024;DHT22;1016;48.770;9.154;2023-01-26T09:34:29;4.00;99.90
2024;DHT22;1016;48.770;9.154;2023-01-26T09:36:55;4.10;99.90
2024;DHT22;1016;48.770;9.154;2023-01-26T09:39:20;4.10;99.90
2024;DHT22;1016;48.770;9.154;2023-01-26T09:44:25;4.00;99.90
2024;DHT22;1016;48.770;9.154;2023-01-26T09:47:07;3.80;99.90
2024;DHT22;1016;48.770;9.154;2023-01-26T09:49:53;3.60;99.90
2024;DHT22;1016;48.770;9.154;2023-01-26T09:52:28;3.70;99.90
2024;DHT22;1016;48.770;9.154;2023-01-26T09:55:03;3.80;99.90
2024;DHT22;1016;48.770;9.154;2023-01-26T09:57:36;3.90;99.90
2024;DHT22;1016;48.770;9.154;2023-01-26T10:00:19;3.90;99.90
2024;DHT22;1016;48.770;9.154;2023-01-26T10:03:17;3.80;99.90
2024;DHT22;1016;48.770;9.154;2023-01-26T10:05:50;3.80;99.90
2024;DHT22;1016;48.770;9.154;2023-01-26T10:08:20;3.90;99.90
2024;DHT22;1016;48.770;9.154;2023-01-26T10:10:51;3.90;99.90
2024;DHT22;1016;48.770;9.154;2023-01-26T10:13:19;3.90;99.90
2024;DHT22;1016;48.770;9.154;2023-01-26T10:15:49;3.90;99.90
2024;DHT22;1016;48.770;9.154;2023-01-26T10:18:20;3.90;99.90
2024;DHT22;1016;48.770;9.154;2023-01-26T10:20:52;3.90;99.90
2024;DHT22;1016;48.770;9.154;2023-01-26T10:23:32;3.90;99.90
2024;DHT22;1016;48.770;9.154;2023-01-26T10:26:13;3.90;99.90
2024;DHT22;1016;48.770;9.154;2023-01-26T10:28:41;4.00;99.90
2024;DHT22;1016;48.770;9.154;2023-01-26T10:31:19;4.10;99.90
2024;DHT22;1016;48.770;9.154;2023-01-26T10:34:12;4.10;99.90
2024;DHT22;1016;48.770;9.154;2023-01-26T10:36:40;4.20;99.90
2024;DHT22;1016;48.770;9.154;2023-01-26T10:39:08;4.10;99.90
2024;DHT22;1016;48.770;9.154;2023-01-26T10:41:35;4.10;99.90
2024;DHT22;1016;48.770;9.154;2023-01-26T10:44:09;4.00;99.90
2024;DHT22;1016;48.770;9.154;2023-01-26T10:46:43;4.00;99.90
2024;DHT22;1016;48.770;9.154;2023-01-26T10:51:37;3.90;99.90
2024;DHT22;1016;48.770;9.154;2023-01-26T10:56:52;3.80;99.90
2024;DHT22;1016;48.770;9.154;2023-01-26T10:59:26;3.80;99.90
2024;DHT22;1016;48.770;9.154;2023-01-26T11:01:55;3.70;99.90
2024;DHT22;1016;48.770;9.154;2023-01-26T11:04:21;3.70;99.90
2024;DHT22;1016;48.770;9.154;2023-01-26T11:06:47;3.50;99.90
2024;DHT22;1016;48.770;9.154;2023-01-26T11:11:38;3.50;99.90
2024;DHT22;1016;48.770;9.154;2023-01-26T11:14:15;3.40;99.90
2024;DHT22;1016;48.770;9.154;2023-01-26T11:17:16;3.40;99.90
2024;DHT22;1016;48.770;9.154;2023-01-26T11:20:04;3.60;99.90
2024;DHT22;1016;48.770;9.154;2023-01-26T11:36:09;3.60;99.90
2024;DHT22;1016;48.770;9.154;2023-01-26T11:38:41;3.60;99.90
2024;DHT22;1016;48.770;9.154;2023-01-26T11:44:42;3.60;99.90
2024;DHT22;1016;48.770;9.154;2023-01-26T11:47:22;3.40;99.90
2024;DHT22;1016;48.770;9.154;2023-01-26T12:00:52;3.30;99.90
2024;DHT22;1016;48.770;9.154;2023-01-26T12:03:40;3.30;99.90
2024;DHT22;1016;48.770;9.154;2023-01-26T12:06:17;3.20;99.90
2024;DHT22;1016;48.770;9.154;2023-01-26T12:08:50;3.40;99.90
2024;DHT22;1016;48.770;9.154;2023-01-26T12:16:32;3.50;99.90
2024;DHT22;1016;48.770;9.154;2023-01-26T12:21:45;3.50;99.90
2024;DHT22;1016;48.770;9.154;2023-01-26T12:24:18;3.50;99.90
2024;DHT22;1016;48.770;9.154;2023-01-26T12:26:49;3.50;99.90
2024;DHT22;1016;48.770;9.154;2023-01-26T12:29:24;3.50;99.90
2024;DHT22;1016;48.770;9.154;2023-01-26T12:31:58;3.50;99.90
2024;DHT22;1016;48.770;9.154;2023-01-26T12:34:31;3.50;99.90
2024;DHT22;1016;48.770;9.154;2023-01-26T12:37:25;3.50;99.90
2024;DHT22;1016;48.770;9.154;2023-01-26T12:42:43;3.50;99.90
2024;DHT22;1016;48.770;9.154;2023-01-26T12:45:17;3.60;99.90
2024;DHT22;1016;48.770;9.154;2023-01-26T12:47:50;3.70;99.90
2024;DHT22;1016;48.770;9.154;2023-01-26T12:52:51;3.70;99.90
2024;DHT22;1016;48.770;9.154;2023-01-26T12:55:44;3.80;99.90
2024;DHT22;1016;48.770;9.154;2023-01-26T12:58:23;3.80;99.90
2024;DHT22;1016;48.770;9.154;2023-01-26T13:03:32;3.70;99.90
2024;DHT22;1016;48.770;9.154;2023-01-26T13:11:01;3.90;99.90
2024;DHT22;1016;48.770;9.154;2023-01-26T13:13:55;3.80;99.90
2024;DHT22;1016;48.770;9.154;2023-01-26T13:18:57;3.80;99.90
2024;DHT22;1016;48.770;9.154;2023-01-26T13:21:48;3.80;99.90
2024;DHT22;1016;48.770;9.154;2023-01-26T13:26:46;3.80;99.90
2024;DHT22;1016;48.770;9.154;2023-01-26T13:31:51;3.80;99.90
2024;DHT22;1016;48.770;9.154;2023-01-26T13:34:31;3.80;99.90
2024;DHT22;1016;48.770;9.154;2023-01-26T13:39:58;3.70;99.90
2024;DHT22;1016;48.770;9.154;2023-01-26T13:42:51;3.70;99.90
2024;DHT22;1016;48.770;9.154;2023-01-26T13:48:17;3.70;99.90
2024;DHT22;1016;48.770;9.154;2023-01-26T13:50:49;3.60;99.90
2024;DHT22;1016;48.770;9.154;2023-01-26T13:55:57;3.70;99.90
2024;DHT22;1016;48.770;9.154;2023-01-26T13:58:23;3.60;99.90
2024;DHT22;1016;48.770;9.154;2023-01-26T14:01:04;3.60;99.90
2024;DHT22;1016;48.770;9.154;2023-01-26T14:03:30;3.60;99.90
2024;DHT22;1016;48.770;9.154;2023-01-26T14:06:00;3.70;99.90
2024;DHT22;1016;48.770;9.154;2023-01-26T14:08:26;3.70;99.90
2024;DHT22;1016;48.770;9.154;2023-01-26T14:10:52;3.70;99.90
2024;DHT22;1016;48.770;9.154;2023-01-26T14:13:37;3.80;99.90
2024;DHT22;1016;48.770;9.154;2023-01-26T14:16:05;3.90;99.90
2024;DHT22;1016;48.770;9.154;2023-01-26T14:18:31;3.90;99.90
2024;DHT22;1016;48.770;9.154;2023-01-26T14:21:01;3.80;99.90
2024;DHT22;1016;48.770;9.154;2023-01-26T14:23:31;3.80;99.90
2024;DHT22;1016;48.770;9.154;2023-01-26T14:26:05;3.90;99.90
2024;DHT22;1016;48.770;9.154;2023-01-26T14:28:40;4.00;99.90
2024;DHT22;1016;48.770;9.154;2023-01-26T14:31:16;3.90;99.90
2024;DHT22;1016;48.770;9.154;2023-01-26T14:33:43;4.00;99.90
2024;DHT22;1016;48.770;9.154;2023-01-26T14:36:15;4.00;99.90
2024;DHT22;1016;48.770;9.154;2023-01-26T14:38:52;4.00;99.90
2024;DHT22;1016;48.770;9.154;2023-01-26T14:41:30;3.90;99.90
2024;DHT22;1016;48.770;9.154;2023-01-26T14:43:57;4.00;99.90
2024;DHT22;1016;48.770;9.154;2023-01-26T14:52:16;3.50;99.90
2024;DHT22;1016;48.770;9.154;2023-01-26T14:54:43;3.40;99.90
2024;DHT22;1016;48.770;9.154;2023-01-26T14:57:16;3.30;99.90
2024;DHT22;1016;48.770;9.154;2023-01-26T14:59:43;3.20;99.90
2024;DHT22;1016;48.770;9.154;2023-01-26T15:02:15;3.10;99.90
2024;DHT22;1016;48.770;9.154;2023-01-26T15:05:18;3.10;99.90
2024;DHT22;1016;48.770;9.154;2023-01-26T15:07:54;3.10;99.90
2024;DHT22;1016;48.770;9.154;2023-01-26T15:10:41;3.10;99.90
2024;DHT22;1016;48.770;9.154;2023-01-26T15:15:38;3.10;99.90
2024;DHT22;1016;48.770;9.154;2023-01-26T15:23:31;3.10;99.90
2024;DHT22;1016;48.770;9.154;2023-01-26T15:26:13;3.10;99.90
2024;DHT22;1016;48.770;9.154;2023-01-26T15:28:39;3.10;99.90
2024;DHT22;1016;48.770;9.154;2023-01-26T15:31:06;3.30;99.90
2024;DHT22;1016;48.770;9.154;2023-01-26T15:38:59;3.40;99.90
2024;DHT22;1016;48.770;9.154;2023-01-26T15:41:25;3.40;99.90
2024;DHT22;1016;48.770;9.154;2023-01-26T15:43:51;3.40;99.90
2024;DHT22;1016;48.770;9.154;2023-01-26T15:46:16;3.40;99.90
2024;DHT22;1016;48.770;9.154;2023-01-26T15:48:42;3.40;99.90
2024;DHT22;1016;48.770;9.154;2023-01-26T15:51:12;3.60;99.90
2024;DHT22;1016;48.770;9.154;2023-01-26T15:53:38;3.60;99.90
2024;DHT22;1016;48.770;9.154;2023-01-26T15:56:04;3.70;99.90
2024;DHT22;1016;48.770;9.154;2023-01-26T15:58:29;3.60;99.90
2024;DHT22;1016;48.770;9.154;2023-01-26T16:00:59;3.60;99.90
2024;DHT22;1016;48.770;9.154;2023-01-26T16:03:26;3.70;99.90
2024;DHT22;1016;48.770;9.154;2023-01-26T16:05:51;3.60;99.90
2024;DHT22;1016;48.770;9.154;2023-01-26T16:08:18;3.50;99.90
2024;DHT22;1016;48.770;9.154;2023-01-26T16:10:44;3.40;99.90
2024;DHT22;1016;48.770;9.154;2023-01-26T16:13:17;3.50;99.90
2024;DHT22;1016;48.770;9.154;2023-01-26T16:15:48;3.60;99.90
2024;DHT22;1016;48.770;9.154;2023-01-26T16:18:14;3.50;99.90
2024;DHT22;1016;48.770;9.154;2023-01-26T16:20:42;3.60;99.90
2024;DHT22;1016;48.770;9.154;2023-01-26T16:23:26;3.70;99.90
2024;DHT22;1016;48.770;9.154;2023-01-26T16:25:53;3.70;99.90
2024;DHT22;1016;48.770;9.154;2023-01-26T16:28:19;3.50;99.90
2024;DHT22;1016;48.770;9.154;2023-01-26T16:30:46;3.60;99.90
2024;DHT22;1016;48.770;9.154;2023-01-26T16:33:14;3.60;99.90
2024;DHT22;1016;48.770;9.154;2023-01-26T16:35:40;3.70;99.90
2024;DHT22;1016;48.770;9.154;2023-01-26T16:38:06;3.50;99.90
2024;DHT22;1016;48.770;9.154;2023-01-26T16:40:43;3.60;99.90
2024;DHT22;1016;48.770;9.154;2023-01-26T16:43:20;3.70;99.90
2024;DHT22;1016;48.770;9.154;2023-01-26T16:45:46;3.80;99.90
2024;DHT22;1016;48.770;9.154;2023-01-26T16:48:13;3.90;99.90
2024;DHT22;1016;48.770;9.154;2023-01-26T16:50:39;3.90;99.90
2024;DHT22;1016;48.770;9.154;2023-01-26T16:53:26;4.10;99.90
2024;DHT22;1016;48.770;9.154;2023-01-26T16:55:52;3.80;99.90
2024;DHT22;1016;48.770;9.154;2023-01-26T16:58:17;3.80;99.90
2024;DHT22;1016;48.770;9.154;2023-01-26T17:00:43;3.70;99.90
2024;DHT22;1016;48.770;9.154;2023-01-26T17:03:10;3.70;99.90
2024;DHT22;1016;48.770;9.154;2023-01-26T17:05:37;3.70;99.90
2024;DHT22;1016;48.770;9.154;2023-01-26T17:08:03;3.70;99.90
2024;DHT22;1016;48.770;9.154;2023-01-26T17:10:28;3.70;99.90
2024;DHT22;1016;48.770;9.154;2023-01-26T17:12:54;3.60;99.90
2024;DHT22;1016;48.770;9.154;2023-01-26T17:15:20;3.40;99.90
2024;DHT22;1016;48.770;9.154;2023-01-26T17:17:48;3.50;99.90
2024;DHT22;1016;48.770;9.154;2023-01-26T17:20:13;3.50;99.90
2024;DHT22;1016;48.770;9.154;2023-01-26T17:22:39;3.40;99.90
2024;DHT22;1016;48.770;9.154;2023-01-26T17:25:04;3.40;99.90
2024;DHT22;1016;48.770;9.154;2023-01-26T17:27:31;3.50;99.90
2024;DHT22;1016;48.770;9.154;2023-01-26T17:29:57;3.50;99.90
2024;DHT22;1016;48.770;9.154;2023-01-26T17:32:23;3.50;99.90
2024;DHT22;1016;48.770;9.154;2023-01-26T17:34:53;3.30;99.90
2024;DHT22;1016;48.770;9.154;2023-01-26T17:37:25;3.20;99.90
2024;DHT22;1016;48.770;9.154;2023-01-26T17:39:51;3.30;99.90
2024;DHT22;1016;48.770;9.154;2023-01-26T17:42:17;3.30;99.90
2024;DHT22;1016;48.770;9.154;2023-01-26T17:44:43;3.30;99.90
2024;DHT22;1016;48.770;9.154;2023-01-26T17:47:09;3.20;99.90
2024;DHT22;1016;48.770;9.154;2023-01-26T17:49:35;3.30;99.90
2024;DHT22;1016;48.770;9.154;2023-01-26T17:52:01;3.40;99.90
2024;DHT22;1016;48.770;9.154;2023-01-26T17:54:27;3.30;99.90
2024;DHT22;1016;48.770;9.154;2023-01-26T17:56:52;3.20;99.90
2024;DHT22;1016;48.770;9.154;2023-01-26T17:59:19;3.20;99.90
2024;DHT22;1016;48.770;9.154;2023-01-26T18:01:45;3.10;99.90
2024;DHT22;1016;48.770;9.154;2023-01-26T18:04:11;3.20;99.90
2024;DHT22;1016;48.770;9.154;2023-01-26T18:06:37;3.30;99.90
2024;DHT22;1016;48.770;9.154;2023-01-26T18:09:05;3.40;99.90
2024;DHT22;1016;48.770;9.154;2023-01-26T18:11:31;3.50;99.90
2024;DHT22;1016;48.770;9.154;2023-01-26T18:13:57;3.50;99.90
2024;DHT22;1016;48.770;9.154;2023-01-26T18:16:22;3.60;99.90